createdAt,value
2023-05-21T00:00:45.873Z,96281.26
2023-05-21T00:03:34.277Z,96277.21
2023-05-21T00:06:03.888Z,96275.45
2023-05-21T00:08:34.277Z,96273.96
2023-05-21T00:11:02.217Z,96272.98
2023-05-21T00:13:30.307Z,96269.96
2023-05-21T00:15:58.366Z,96263.40
2023-05-21T00:18:26.627Z,96263.91
2023-05-21T00:20:54.699Z,96261.23
2023-05-21T00:23:22.606Z,96261.50
2023-05-21T00:25:50.581Z,96258.59
2023-05-21T00:28:18.600Z,96255.77
2023-05-21T00:30:47.542Z,96253.39
2023-05-21T00:33:15.829Z,96253.14
2023-05-21T00:35:43.991Z,96252.02
2023-05-21T00:38:12.045Z,96252.55
2023-05-21T00:40:41.443Z,96249.86
2023-05-21T00:43:12.114Z,96249.91
2023-05-21T00:45:47.565Z,96251.11
2023-05-21T00:48:16.090Z,96250.77
2023-05-21T00:50:45.008Z,96245.91
2023-05-21T00:53:15.422Z,96243.50
2023-05-21T00:55:43.807Z,96246.79
2023-05-21T00:58:12.179Z,96244.16
2023-05-21T01:00:43.305Z,96240.50
2023-05-21T01:03:13.000Z,96239.25
2023-05-21T01:05:41.177Z,96233.70
2023-05-21T01:08:10.416Z,96232.95
2023-05-21T01:10:38.564Z,96235.42
2023-05-21T01:13:07.380Z,96239.83
2023-05-21T01:15:38.422Z,96242.00
2023-05-21T01:18:07.814Z,96238.87
2023-05-21T01:20:37.715Z,96237.54
2023-05-21T01:23:06.441Z,96234.74
2023-05-21T01:25:35.467Z,96235.01
2023-05-21T01:28:03.730Z,96232.11
2023-05-21T01:30:31.933Z,96229.14
2023-05-21T01:33:17.453Z,96224.77
2023-05-21T01:36:34.682Z,96223.82
2023-05-21T01:39:27.718Z,96219.90
2023-05-21T01:41:58.137Z,96215.54
2023-05-21T01:44:27.410Z,96209.98
2023-05-21T01:46:57.826Z,96204.55
2023-05-21T01:49:46.672Z,96204.01
2023-05-21T01:52:15.215Z,96201.97
2023-05-21T01:54:43.252Z,96198.93
2023-05-21T01:57:11.325Z,96195.16
2023-05-21T01:59:39.462Z,96198.40
2023-05-21T02:02:07.480Z,96203.45
2023-05-21T02:04:36.073Z,96202.85
2023-05-21T02:07:04.197Z,96203.83
2023-05-21T02:09:32.834Z,96211.49
2023-05-21T02:12:01.579Z,96212.80
2023-05-21T02:14:29.895Z,96206.86
2023-05-21T02:16:58.032Z,96204.88
2023-05-21T02:19:26.167Z,96205.44
2023-05-21T02:21:54.298Z,96201.77
2023-05-21T02:24:24.432Z,96201.67
2023-05-21T02:26:52.495Z,96199.57
2023-05-21T02:29:21.094Z,96201.39
2023-05-21T02:31:51.377Z,96202.75
2023-05-21T02:34:20.863Z,96200.80
2023-05-21T02:36:54.827Z,96198.65
2023-05-21T02:39:23.115Z,96195.79
2023-05-21T02:41:51.119Z,96195.55
2023-05-21T02:44:21.004Z,96190.99
2023-05-21T02:46:48.977Z,96187.48
2023-05-21T02:49:17.571Z,96183.27
2023-05-21T02:51:46.489Z,96187.45
2023-05-21T02:54:15.264Z,96188.77
2023-05-21T02:56:43.270Z,96191.60
2023-05-21T02:59:11.349Z,96194.38
2023-05-21T03:01:41.365Z,96195.94
2023-05-21T03:04:11.705Z,96196.91
2023-05-21T03:06:39.682Z,96194.28
2023-05-21T03:09:07.528Z,96190.74
2023-05-21T03:11:36.862Z,96192.22
2023-05-21T03:14:04.923Z,96190.05
2023-05-21T03:16:34.929Z,96189.20
2023-05-21T03:19:06.201Z,96185.58
2023-05-21T03:21:36.917Z,96185.69
2023-05-21T03:24:05.973Z,96182.19
2023-05-21T03:26:33.950Z,96180.92
2023-05-21T03:29:02.416Z,96181.12
2023-05-21T03:31:30.576Z,96180.75
2023-05-21T03:34:13.331Z,96177.50
2023-05-21T03:36:41.880Z,96173.40
2023-05-21T03:39:09.985Z,96176.19
2023-05-21T03:41:38.064Z,96173.34
2023-05-21T03:44:32.640Z,96173.27
2023-05-21T03:47:21.518Z,96179.14
2023-05-21T03:49:50.813Z,96176.45
2023-05-21T03:52:20.247Z,96175.65
2023-05-21T03:54:48.390Z,96174.84
2023-05-21T03:57:18.697Z,96173.09
2023-05-21T03:59:47.354Z,96179.34
2023-05-21T04:02:16.092Z,96182.57
2023-05-21T04:04:45.702Z,96181.88
2023-05-21T04:07:15.772Z,96178.48
2023-05-21T04:09:43.782Z,96179.17
2023-05-21T04:12:11.874Z,96179.60
2023-05-21T04:14:40.169Z,96176.89
2023-05-21T04:17:09.163Z,96177.16
2023-05-21T04:19:37.454Z,96178.48
2023-05-21T04:22:05.775Z,96178.42
2023-05-21T04:24:34.656Z,96184.00
2023-05-21T04:27:14.473Z,96183.52
2023-05-21T04:29:44.231Z,96181.98
2023-05-21T04:32:15.346Z,96180.12
2023-05-21T04:34:44.400Z,96181.11
2023-05-21T04:37:13.017Z,96186.94
2023-05-21T04:39:41.231Z,96185.63
2023-05-21T04:42:11.217Z,96184.14
2023-05-21T04:44:41.195Z,96189.08
2023-05-21T04:47:09.231Z,96192.07
2023-05-21T04:49:37.353Z,96191.06
2023-05-21T04:52:05.331Z,96187.95
2023-05-21T04:54:33.572Z,96188.19
2023-05-21T04:57:03.115Z,96187.52
2023-05-21T04:59:32.125Z,96187.56
2023-05-21T05:02:00.226Z,96188.45
2023-05-21T05:04:28.388Z,96185.77
2023-05-21T05:06:56.849Z,96184.95
2023-05-21T05:09:25.324Z,96185.10
2023-05-21T05:11:53.928Z,96182.23
2023-05-21T05:14:21.879Z,96183.52
2023-05-21T05:16:49.989Z,96183.19
2023-05-21T05:19:18.603Z,96182.10
2023-05-21T05:21:46.735Z,96180.80
2023-05-21T05:24:18.282Z,96178.36
2023-05-21T05:26:46.485Z,96177.77
2023-05-21T05:29:14.624Z,96175.55
2023-05-21T05:31:43.174Z,96174.11
2023-05-21T05:34:11.221Z,96176.61
2023-05-21T05:36:39.760Z,96176.25
2023-05-21T05:39:07.954Z,96177.84
2023-05-21T05:41:35.930Z,96172.38
2023-05-21T05:44:04.296Z,96168.05
2023-05-21T05:46:33.095Z,96162.24
2023-05-21T05:49:01.166Z,96165.84
2023-05-21T05:51:30.332Z,96162.31
2023-05-21T05:53:58.317Z,96161.98
2023-05-21T05:56:27.027Z,96159.14
2023-05-21T05:58:56.108Z,96162.77
2023-05-21T06:01:24.889Z,96158.57
2023-05-21T06:03:53.269Z,96158.39
2023-05-21T06:06:21.422Z,96150.30
2023-05-21T06:08:49.538Z,96152.17
2023-05-21T06:11:19.079Z,96151.06
2023-05-21T06:13:47.310Z,96153.89
2023-05-21T06:16:16.482Z,96155.42
2023-05-21T06:18:44.707Z,96158.35
2023-05-21T06:21:12.702Z,96158.30
2023-05-21T06:23:40.946Z,96155.45
2023-05-21T06:26:08.963Z,96154.11
2023-05-21T06:28:36.980Z,96153.95
2023-05-21T06:31:05.509Z,96155.73
2023-05-21T06:33:34.035Z,96149.13
2023-05-21T06:36:02.232Z,96147.84
2023-05-21T06:38:31.154Z,96145.73
2023-05-21T06:40:59.695Z,96144.42
2023-05-21T06:43:42.924Z,96139.71
2023-05-21T06:46:29.679Z,96137.65
2023-05-21T06:48:58.471Z,96138.44
2023-05-21T06:51:26.454Z,96134.06
2023-05-21T06:53:55.629Z,96131.55
2023-05-21T06:56:23.679Z,96129.25
2023-05-21T06:58:54.696Z,96126.08
2023-05-21T07:01:23.545Z,96122.02
2023-05-21T07:03:51.667Z,96120.02
2023-05-21T07:06:19.704Z,96117.50
2023-05-21T07:08:49.833Z,96114.91
2023-05-21T07:11:17.816Z,96111.95
2023-05-21T07:13:46.617Z,96114.20
2023-05-21T07:16:16.881Z,96106.33
2023-05-21T07:18:45.198Z,96104.57
2023-05-21T07:21:13.319Z,96102.70
2023-05-21T07:23:41.237Z,96103.27
2023-05-21T07:26:10.679Z,96104.67
2023-05-21T07:28:38.631Z,96104.11
2023-05-21T07:31:06.797Z,96105.77
2023-05-21T07:33:39.024Z,96105.61
2023-05-21T07:36:07.267Z,96103.02
2023-05-21T07:38:35.244Z,96105.95
2023-05-21T07:41:03.160Z,96104.03
2023-05-21T07:43:32.239Z,96104.06
2023-05-21T07:46:00.406Z,96107.95
2023-05-21T07:48:29.087Z,96110.51
2023-05-21T07:50:59.185Z,96107.61
2023-05-21T07:53:27.476Z,96102.23
2023-05-21T07:55:55.805Z,96100.33
2023-05-21T07:58:26.065Z,96095.83
2023-05-21T08:00:54.176Z,96097.89
2023-05-21T08:03:23.180Z,96095.52
2023-05-21T08:05:51.523Z,96093.27
2023-05-21T08:08:20.372Z,96091.02
2023-05-21T08:10:48.379Z,96088.63
2023-05-21T08:13:17.255Z,96091.50
2023-05-21T08:15:46.788Z,96089.11
2023-05-21T08:18:15.198Z,96085.63
2023-05-21T08:20:43.885Z,96080.71
2023-05-21T08:23:12.503Z,96084.34
2023-05-21T08:25:44.513Z,96082.96
2023-05-21T08:28:12.474Z,96080.86
2023-05-21T08:30:41.618Z,96083.03
2023-05-21T08:33:09.613Z,96082.48
2023-05-21T08:35:38.018Z,96083.66
2023-05-21T08:38:20.248Z,96081.67
2023-05-21T08:41:07.921Z,96081.48
2023-05-21T08:43:37.858Z,96079.39
2023-05-21T08:46:08.518Z,96082.52
2023-05-21T08:48:39.118Z,96081.86
2023-05-21T08:51:07.191Z,96079.91
2023-05-21T08:53:39.283Z,96079.49
2023-05-21T08:56:09.835Z,96080.83
2023-05-21T08:58:46.806Z,96081.52
2023-05-21T09:01:19.435Z,96078.83
2023-05-21T09:03:52.645Z,96081.98
2023-05-21T09:06:21.642Z,96085.33
2023-05-21T09:08:59.290Z,96082.55
2023-05-21T09:11:33.168Z,96078.97
2023-05-21T09:14:01.887Z,96078.17
2023-05-21T09:16:36.816Z,96077.25
2023-05-21T09:19:05.319Z,96077.25
2023-05-21T09:21:35.471Z,96073.88
2023-05-21T09:24:11.582Z,96079.56
2023-05-21T09:26:43.438Z,96082.39
2023-05-21T09:29:13.445Z,96077.62
2023-05-21T09:31:45.381Z,96078.39
2023-05-21T09:34:14.764Z,96073.27
2023-05-21T09:36:47.228Z,96073.88
2023-05-21T09:39:30.042Z,96073.98
2023-05-21T09:41:58.972Z,96074.75
2023-05-21T09:44:27.485Z,96075.02
2023-05-21T09:46:59.631Z,96070.00
2023-05-21T09:49:28.320Z,96071.59
2023-05-21T09:51:59.810Z,96072.98
2023-05-21T09:54:34.627Z,96069.26
2023-05-21T09:57:02.947Z,96066.38
2023-05-21T09:59:40.096Z,96061.44
2023-05-21T10:02:30.042Z,96061.86
2023-05-21T10:04:58.755Z,96064.00
2023-05-21T10:07:27.548Z,96061.76
2023-05-21T10:09:57.950Z,96061.02
2023-05-21T10:12:29.192Z,96057.61
2023-05-21T10:15:03.285Z,96058.63
2023-05-21T10:17:31.529Z,96057.86
2023-05-21T10:20:01.468Z,96054.29
2023-05-21T10:22:29.965Z,96051.71
2023-05-21T10:24:58.835Z,96046.00
2023-05-21T10:27:31.329Z,96042.31
2023-05-21T10:30:00.540Z,96036.77
2023-05-21T10:32:28.818Z,96034.54
2023-05-21T10:34:59.309Z,96029.71
2023-05-21T10:37:29.667Z,96026.31
2023-05-21T10:39:57.681Z,96027.75
2023-05-21T10:42:31.765Z,96024.30
2023-05-21T10:45:16.179Z,96024.46
2023-05-21T10:47:56.561Z,96020.52
2023-05-21T10:50:44.841Z,96024.06
2023-05-21T10:53:24.892Z,96024.89
2023-05-21T10:56:15.644Z,96022.58
2023-05-21T10:58:43.547Z,96014.02
2023-05-21T11:01:12.786Z,96014.77
2023-05-21T11:03:41.040Z,96014.98
2023-05-21T11:06:09.296Z,96009.33
2023-05-21T11:08:38.968Z,96009.84
2023-05-21T11:11:07.240Z,96011.52
2023-05-21T11:13:49.879Z,96009.45
2023-05-21T11:16:18.557Z,96008.20
2023-05-21T11:18:46.684Z,96001.05
2023-05-21T11:21:21.051Z,96002.04
2023-05-21T11:24:06.643Z,96000.88
2023-05-21T11:26:55.251Z,95996.70
2023-05-21T11:29:33.549Z,95999.80
2023-05-21T11:32:03.018Z,95996.85
2023-05-21T11:34:41.812Z,95998.96
2023-05-21T11:37:26.933Z,95995.06
2023-05-21T11:39:56.332Z,95994.46
2023-05-21T11:42:35.045Z,95993.64
2023-05-21T11:45:04.173Z,95988.91
2023-05-21T11:47:32.669Z,95985.77
2023-05-21T11:50:03.462Z,95981.84
2023-05-21T11:52:32.891Z,95977.18
2023-05-21T11:55:01.142Z,95977.68
2023-05-21T11:57:32.440Z,95979.54
2023-05-21T12:00:02.425Z,95975.02
2023-05-21T12:02:45.613Z,95970.54
2023-05-21T12:05:14.194Z,95965.62
2023-05-21T12:07:42.750Z,95963.12
2023-05-21T12:10:11.423Z,95964.46
2023-05-21T12:12:50.588Z,95961.31
2023-05-21T12:15:24.448Z,95966.27
2023-05-21T12:17:55.560Z,95967.89
2023-05-21T12:20:26.292Z,95967.52
2023-05-21T12:22:54.471Z,95965.67
2023-05-21T12:25:22.753Z,95959.98
2023-05-21T12:27:57.913Z,95954.50
2023-05-21T12:30:26.496Z,95956.75
2023-05-21T12:32:58.488Z,95955.04
2023-05-21T12:35:26.592Z,95951.67
2023-05-21T12:37:54.858Z,95947.48
2023-05-21T12:40:34.467Z,95945.34
2023-05-21T12:43:03.206Z,95946.13
2023-05-21T12:45:32.443Z,95941.83
2023-05-21T12:48:03.654Z,95940.95
2023-05-21T12:50:32.953Z,95938.98
2023-05-21T12:53:00.955Z,95934.42
2023-05-21T12:55:28.964Z,95931.90
2023-05-21T12:58:09.171Z,95935.78
2023-05-21T13:00:38.117Z,95930.41
2023-05-21T13:03:07.066Z,95931.92
2023-05-21T13:05:35.804Z,95930.08
2023-05-21T13:08:04.085Z,95931.58
2023-05-21T13:10:32.118Z,95928.86
2023-05-21T13:13:00.278Z,95923.84
2023-05-21T13:15:28.555Z,95920.00
2023-05-21T13:17:57.868Z,95917.88
2023-05-21T13:20:27.626Z,95920.20
2023-05-21T13:22:56.362Z,95922.14
2023-05-21T13:25:28.830Z,95920.35
2023-05-21T13:27:58.132Z,95917.79
2023-05-21T13:30:26.641Z,95915.81
2023-05-21T13:32:54.950Z,95914.91
2023-05-21T13:35:23.016Z,95916.88
2023-05-21T13:37:51.136Z,95915.06
2023-05-21T13:40:19.430Z,95915.61
2023-05-21T13:42:48.524Z,95917.40
2023-05-21T13:45:18.890Z,95911.03
2023-05-21T13:47:48.177Z,95913.78
2023-05-21T13:50:16.686Z,95910.30
2023-05-21T13:52:46.093Z,95910.59
2023-05-21T13:55:16.154Z,95910.83
2023-05-21T13:57:44.990Z,95911.55
2023-05-21T14:00:15.454Z,95910.05
2023-05-21T14:02:43.968Z,95908.70
2023-05-21T14:05:13.060Z,95907.23
2023-05-21T14:07:42.171Z,95905.77
2023-05-21T14:10:11.245Z,95900.67
2023-05-21T14:12:40.614Z,95901.83
2023-05-21T14:15:08.887Z,95899.63
2023-05-21T14:17:36.788Z,95896.54
2023-05-21T14:20:05.489Z,95895.11
2023-05-21T14:22:33.532Z,95898.22
2023-05-21T14:25:02.113Z,95902.65
2023-05-21T14:27:30.368Z,95904.64
2023-05-21T14:29:58.372Z,95903.59
2023-05-21T14:32:26.891Z,95900.13
2023-05-21T14:34:55.403Z,95897.05
2023-05-21T14:37:23.367Z,95896.53
2023-05-21T14:39:51.524Z,95895.29
2023-05-21T14:42:19.548Z,95890.08
2023-05-21T14:44:47.491Z,95887.46
2023-05-21T14:47:15.645Z,95883.34
2023-05-21T14:49:43.664Z,95882.29
2023-05-21T14:52:11.777Z,95876.45
2023-05-21T14:54:39.759Z,95871.23
2023-05-21T14:57:07.688Z,95866.19
2023-05-21T14:59:35.674Z,95866.79
2023-05-21T15:02:04.286Z,95869.13
2023-05-21T15:04:32.736Z,95873.77
2023-05-21T15:07:01.787Z,95875.58
2023-05-21T15:09:29.729Z,95873.56
2023-05-21T15:11:57.763Z,95870.94
2023-05-21T15:14:25.888Z,95870.81
2023-05-21T15:16:54.826Z,95869.85
2023-05-21T15:19:23.006Z,95872.88
2023-05-21T15:21:51.820Z,95883.89
2023-05-21T15:24:20.771Z,95893.55
2023-05-21T15:26:49.716Z,95897.66
2023-05-21T15:29:17.858Z,95891.30
2023-05-21T15:31:45.854Z,95886.52
2023-05-21T15:34:13.908Z,95882.98
2023-05-21T15:36:41.994Z,95875.21
2023-05-21T15:39:09.922Z,95872.27
2023-05-21T15:41:38.260Z,95872.52
2023-05-21T15:44:06.815Z,95869.45
2023-05-21T15:46:35.937Z,95871.73
2023-05-21T15:49:04.385Z,95876.96
2023-05-21T15:51:32.503Z,95879.06
2023-05-21T15:54:02.696Z,95878.40
2023-05-21T15:56:31.675Z,95876.96
2023-05-21T15:59:01.693Z,95876.05
2023-05-21T16:01:30.005Z,95875.98
2023-05-21T16:03:58.598Z,95874.43
2023-05-21T16:06:27.863Z,95873.30
2023-05-21T16:08:56.675Z,95876.70
2023-05-21T16:11:26.702Z,95872.52
2023-05-21T16:13:54.830Z,95870.64
2023-05-21T16:16:24.720Z,95863.32
2023-05-21T16:18:53.525Z,95860.30
2023-05-21T16:21:21.624Z,95860.45
2023-05-21T16:23:49.821Z,95858.91
2023-05-21T16:26:18.721Z,95863.21
2023-05-21T16:28:47.755Z,95863.92
2023-05-21T16:31:15.948Z,95865.63
2023-05-21T16:33:44.776Z,95870.65
2023-05-21T16:36:13.126Z,95871.84
2023-05-21T16:38:43.543Z,95869.65
2023-05-21T16:41:12.096Z,95870.49
2023-05-21T16:43:40.331Z,95877.75
2023-05-21T16:46:11.251Z,95879.92
2023-05-21T16:48:42.696Z,95882.20
2023-05-21T16:51:13.777Z,95885.27
2023-05-21T16:53:44.344Z,95886.63
2023-05-21T16:56:15.791Z,95886.39
2023-05-21T16:58:47.729Z,95886.31
2023-05-21T17:01:18.780Z,95886.34
2023-05-21T17:03:51.121Z,95885.55
2023-05-21T17:06:22.775Z,95884.34
2023-05-21T17:08:54.783Z,95883.77
2023-05-21T17:11:26.757Z,95882.14
2023-05-21T17:13:57.930Z,95883.77
2023-05-21T17:16:29.813Z,95883.48
2023-05-21T17:19:01.791Z,95884.67
2023-05-21T17:21:33.789Z,95886.55
2023-05-21T17:24:04.329Z,95891.48
2023-05-21T17:26:34.841Z,95890.92
2023-05-21T17:29:06.815Z,95888.77
2023-05-21T17:31:38.294Z,95890.48
2023-05-21T17:34:09.775Z,95891.66
2023-05-21T17:36:40.800Z,95894.24
2023-05-21T17:39:10.244Z,95896.13
2023-05-21T17:41:40.786Z,95896.72
2023-05-21T17:44:13.786Z,95898.43
2023-05-21T17:54:51.404Z,95901.25
2023-05-21T17:57:20.314Z,95906.50
2023-05-21T17:59:48.558Z,95908.06
2023-05-21T18:02:16.517Z,95906.55
2023-05-21T18:04:44.527Z,95905.81
2023-05-21T18:07:12.423Z,95903.56
2023-05-21T18:09:40.476Z,95904.08
2023-05-21T18:12:08.584Z,95905.70
2023-05-21T18:14:36.492Z,95906.73
2023-05-21T18:17:04.698Z,95905.98
2023-05-21T18:19:32.860Z,95909.13
2023-05-21T18:22:01.008Z,95906.95
2023-05-21T18:24:28.975Z,95907.17
2023-05-21T18:26:56.950Z,95905.23
2023-05-21T18:29:24.831Z,95903.02
2023-05-21T18:31:52.962Z,95909.29
2023-05-21T18:34:21.038Z,95910.31
2023-05-21T18:36:49.193Z,95912.74
2023-05-21T18:39:17.167Z,95911.72
2023-05-21T18:41:45.103Z,95911.27
2023-05-21T18:44:13.049Z,95912.37
2023-05-21T18:46:40.996Z,95914.53
2023-05-21T18:49:08.924Z,95917.81
2023-05-21T18:51:36.925Z,95922.06
2023-05-21T18:54:04.970Z,95920.75
2023-05-21T18:56:33.033Z,95925.35
2023-05-21T18:59:01.175Z,95925.11
2023-05-21T19:01:29.399Z,95924.52
2023-05-21T19:03:57.483Z,95930.20
2023-05-21T19:06:26.449Z,95930.92
2023-05-21T19:08:54.478Z,95931.14
2023-05-21T19:11:23.616Z,95933.34
2023-05-21T19:13:51.791Z,95936.41
2023-05-21T19:16:19.791Z,95940.52
2023-05-21T19:18:47.870Z,95938.91
2023-05-21T19:21:15.882Z,95940.77
2023-05-21T19:23:52.582Z,95942.25
2023-05-21T19:26:22.933Z,95940.08
2023-05-21T19:28:53.857Z,95939.64
2023-05-21T19:31:23.368Z,95942.71
2023-05-21T19:33:51.567Z,95942.52
2023-05-21T19:36:21.125Z,95951.40
2023-05-21T19:38:50.377Z,95961.70
2023-05-21T19:41:19.901Z,95968.31
2023-05-21T19:43:47.783Z,95971.48
2023-05-21T19:46:18.300Z,95976.52
2023-05-21T19:48:49.505Z,95987.83
2023-05-21T19:51:17.675Z,95995.39
2023-05-21T19:53:45.625Z,95997.53
2023-05-21T19:56:13.555Z,95994.35
2023-05-21T19:58:41.710Z,95995.23
2023-05-21T20:01:09.810Z,95992.01
2023-05-21T20:03:37.836Z,95989.52
2023-05-21T20:06:05.927Z,95993.37
2023-05-21T20:08:34.043Z,95999.60
2023-05-21T20:11:02.202Z,95994.23
2023-05-21T20:13:30.067Z,95991.84
2023-05-21T20:15:58.065Z,95991.39
2023-05-21T20:18:25.989Z,95988.62
2023-05-21T20:20:55.226Z,95989.20
2023-05-21T20:23:23.180Z,95992.10
2023-05-21T20:25:51.212Z,95991.77
2023-05-21T20:28:20.623Z,95986.42
2023-05-21T20:31:00.068Z,95984.30
2023-05-21T20:33:30.326Z,95985.05
2023-05-21T20:35:58.524Z,95986.11
2023-05-21T20:38:27.097Z,95987.41
2023-05-21T20:40:55.313Z,95988.03
2023-05-21T20:43:24.476Z,95990.02
2023-05-21T20:45:59.732Z,95989.60
2023-05-21T20:48:29.516Z,95988.23
2023-05-21T20:50:57.994Z,95987.65
2023-05-21T20:53:26.855Z,95989.23
2023-05-21T20:55:54.963Z,95985.94
2023-05-21T20:58:25.870Z,95986.73
2023-05-21T21:00:55.305Z,95984.82
2023-05-21T21:03:23.687Z,95987.69
2023-05-21T21:05:52.833Z,95992.73
2023-05-21T21:08:20.791Z,95992.19
2023-05-21T21:10:48.774Z,95996.35
2023-05-21T21:13:16.879Z,95998.93
2023-05-21T21:15:44.861Z,95997.48
2023-05-21T21:18:13.053Z,95997.79
2023-05-21T21:20:42.755Z,95998.16
2023-05-21T21:23:10.748Z,96001.02
2023-05-21T21:25:38.819Z,96003.60
2023-05-21T21:28:06.878Z,96006.23
2023-05-21T21:30:34.849Z,96007.55
2023-05-21T21:33:02.957Z,96009.61
2023-05-21T21:35:31.172Z,96008.99
2023-05-21T21:37:59.303Z,96010.75
2023-05-21T21:40:27.840Z,96014.06
2023-05-21T21:42:58.862Z,96013.47
2023-05-21T21:45:27.029Z,96020.39
2023-05-21T21:47:55.114Z,96019.48
2023-05-21T21:50:23.620Z,96019.81
2023-05-21T21:52:59.485Z,96014.69
2023-05-21T21:55:27.559Z,96018.20
2023-05-21T21:57:55.994Z,96017.54
2023-05-21T22:00:26.890Z,96022.06
2023-05-21T22:02:55.463Z,96020.77
2023-05-21T22:05:23.648Z,96016.45
2023-05-21T22:07:51.779Z,96015.25
2023-05-21T22:10:19.794Z,96014.56
2023-05-21T22:12:48.343Z,96015.27
2023-05-21T22:15:23.973Z,96016.30
2023-05-21T22:17:52.194Z,96015.86
2023-05-21T22:20:26.102Z,96016.39
2023-05-21T22:22:55.403Z,96012.94
2023-05-21T22:25:23.791Z,96012.50
2023-05-21T22:27:52.357Z,96013.86
2023-05-21T22:30:20.317Z,96012.31
2023-05-21T22:32:48.459Z,96007.47
2023-05-21T22:35:16.749Z,96011.21
2023-05-21T22:37:44.760Z,96014.38
2023-05-21T22:40:13.023Z,96018.13
2023-05-21T22:42:41.485Z,96017.44
2023-05-21T22:45:11.830Z,96017.55
2023-05-21T22:47:40.057Z,96021.63
2023-05-21T22:50:10.254Z,96019.02
2023-05-21T22:52:38.406Z,96023.33
2023-05-21T22:55:06.526Z,96025.79
2023-05-21T22:57:34.778Z,96024.88
2023-05-21T23:00:02.850Z,96023.65
2023-05-21T23:02:30.923Z,96022.08
2023-05-21T23:04:59.259Z,96020.23
2023-05-21T23:07:27.203Z,96020.66
2023-05-21T23:09:55.122Z,96019.08
2023-05-21T23:12:23.281Z,96014.79
2023-05-21T23:14:51.351Z,96013.77
2023-05-21T23:17:19.473Z,96015.98
2023-05-21T23:19:52.445Z,96019.06
2023-05-21T23:22:20.563Z,96020.44
2023-05-21T23:24:48.745Z,96019.33
2023-05-21T23:27:16.806Z,96017.84
2023-05-21T23:29:44.750Z,96017.10
2023-05-21T23:32:12.706Z,96014.05
2023-05-21T23:34:42.075Z,96009.74
2023-05-21T23:37:10.168Z,96008.45
2023-05-21T23:39:38.133Z,96007.55
2023-05-21T23:42:06.641Z,96003.55
2023-05-21T23:44:34.736Z,96004.37
2023-05-21T23:47:02.904Z,95999.83
2023-05-21T23:49:33.096Z,95997.73
2023-05-21T23:52:01.739Z,95998.88
2023-05-21T23:54:29.743Z,95999.10
2023-05-21T23:56:57.717Z,95997.71
2023-05-21T23:59:25.671Z,95995.48
